createdAt,value
2023-04-26T00:01:31.919Z,4.57
2023-04-26T00:03:58.916Z,4.97
2023-04-26T00:06:27.328Z,5.18
2023-04-26T00:08:54.692Z,5.70
2023-04-26T00:11:22.040Z,5.15
2023-04-26T00:13:48.915Z,5.20
2023-04-26T00:16:16.811Z,5.18
2023-04-26T00:18:44.789Z,4.82
2023-04-26T00:21:11.747Z,4.57
2023-04-26T00:23:38.569Z,5.47
2023-04-26T00:26:05.515Z,5.25
2023-04-26T00:28:32.313Z,5.70
2023-04-26T00:30:59.228Z,5.40
2023-04-26T00:33:26.380Z,5.30
2023-04-26T00:35:53.320Z,5.70
2023-04-26T00:38:20.160Z,5.70
2023-04-26T00:40:47.323Z,5.55
2023-04-26T00:43:14.144Z,5.35
2023-04-26T00:45:41.107Z,5.68
2023-04-26T00:48:08.066Z,5.65
2023-04-26T00:50:35.019Z,5.85
2023-04-26T00:53:03.030Z,5.90
2023-04-26T00:55:29.983Z,6.00
2023-04-26T00:57:57.828Z,5.93
2023-04-26T01:00:24.894Z,6.20
2023-04-26T01:02:52.218Z,5.75
2023-04-26T01:05:19.226Z,5.85
2023-04-26T01:07:46.500Z,5.85
2023-04-26T01:10:13.413Z,5.65
2023-04-26T01:12:40.437Z,6.32
2023-04-26T01:15:07.724Z,5.78
2023-04-26T01:17:34.683Z,5.45
2023-04-26T01:20:01.520Z,6.10
2023-04-26T01:22:32.493Z,6.38
2023-04-26T01:25:01.660Z,5.93
2023-04-26T01:27:28.516Z,5.85
2023-04-26T01:29:55.533Z,6.68
2023-04-26T01:32:22.501Z,5.53
2023-04-26T01:34:49.299Z,5.88
2023-04-26T01:37:16.101Z,5.82
2023-04-26T01:39:42.877Z,6.13
2023-04-26T01:42:09.704Z,6.38
2023-04-26T01:44:36.506Z,5.78
2023-04-26T01:47:03.828Z,5.57
2023-04-26T01:49:30.638Z,5.70
2023-04-26T01:51:57.678Z,5.53
2023-04-26T01:54:24.508Z,5.32
2023-04-26T01:56:51.474Z,5.65
2023-04-26T01:59:18.614Z,5.60
2023-04-26T02:01:45.506Z,6.63
2023-04-26T02:04:12.557Z,5.30
2023-04-26T02:06:39.464Z,5.97
2023-04-26T02:09:06.273Z,5.80
2023-04-26T02:11:33.063Z,5.63
2023-04-26T02:13:59.925Z,5.85
2023-04-26T02:16:27.211Z,5.93
2023-04-26T02:18:55.180Z,5.60
2023-04-26T02:21:22.494Z,6.35
2023-04-26T02:23:49.303Z,5.05
2023-04-26T02:26:16.378Z,4.88
2023-04-26T02:28:43.304Z,5.10
2023-04-26T02:31:10.206Z,5.53
2023-04-26T02:33:37.101Z,5.72
2023-04-26T02:36:06.181Z,5.53
2023-04-26T02:38:35.894Z,5.70
2023-04-26T02:41:03.861Z,5.70
2023-04-26T02:43:30.721Z,5.18
2023-04-26T02:45:59.064Z,5.25
2023-04-26T02:48:25.952Z,5.32
2023-04-26T02:50:53.278Z,5.10
2023-04-26T02:53:20.254Z,5.63
2023-04-26T02:55:47.071Z,6.18
2023-04-26T02:58:13.875Z,6.47
2023-04-26T03:00:47.183Z,6.20
2023-04-26T03:03:14.988Z,6.20
2023-04-26T03:05:42.004Z,6.38
2023-04-26T03:08:09.747Z,5.88
2023-04-26T03:10:36.546Z,5.65
2023-04-26T03:13:04.843Z,6.18
2023-04-26T03:15:31.724Z,6.07
2023-04-26T03:17:58.593Z,6.25
2023-04-26T03:20:25.861Z,5.97
2023-04-26T03:22:52.784Z,5.57
2023-04-26T03:25:19.923Z,5.68
2023-04-26T03:27:46.896Z,6.10
2023-04-26T03:30:14.620Z,5.85
2023-04-26T03:32:41.485Z,5.85
2023-04-26T03:35:08.749Z,6.22
2023-04-26T03:37:35.601Z,5.65
2023-04-26T03:40:02.435Z,5.28
2023-04-26T03:42:29.334Z,5.45
2023-04-26T03:44:56.375Z,6.20
2023-04-26T03:47:23.186Z,5.65
2023-04-26T03:49:50.001Z,5.43
2023-04-26T03:52:16.981Z,5.30
2023-04-26T03:54:43.780Z,5.32
2023-04-26T03:57:10.640Z,4.68
2023-04-26T03:59:37.880Z,5.40
2023-04-26T04:02:05.004Z,5.38
2023-04-26T04:04:32.453Z,5.10
2023-04-26T04:06:59.745Z,4.97
2023-04-26T04:09:26.654Z,4.95
2023-04-26T04:11:53.496Z,4.60
2023-04-26T04:14:20.324Z,4.85
2023-04-26T04:16:47.175Z,4.55
2023-04-26T04:19:14.007Z,4.70
2023-04-26T04:21:42.827Z,4.50
2023-04-26T04:24:09.658Z,5.30
2023-04-26T04:26:36.912Z,5.28
2023-04-26T04:29:09.137Z,4.97
2023-04-26T04:31:36.792Z,4.85
2023-04-26T04:34:03.762Z,5.45
2023-04-26T04:36:31.264Z,5.13
2023-04-26T04:38:58.214Z,4.78
2023-04-26T04:41:25.112Z,4.93
2023-04-26T04:43:53.627Z,5.18
2023-04-26T04:46:20.588Z,4.45
2023-04-26T04:48:47.522Z,4.80
2023-04-26T04:51:14.314Z,4.70
2023-04-26T04:53:41.116Z,5.30
2023-04-26T04:56:08.791Z,5.38
2023-04-26T04:58:36.199Z,6.28
2023-04-26T05:01:03.011Z,5.78
2023-04-26T05:03:30.065Z,5.68
2023-04-26T05:05:57.286Z,5.72
2023-04-26T05:08:24.084Z,6.05
2023-04-26T05:10:50.921Z,6.03
2023-04-26T05:13:17.723Z,5.38
2023-04-26T05:15:44.562Z,6.18
2023-04-26T05:18:11.457Z,5.88
2023-04-26T05:20:39.137Z,6.57
2023-04-26T05:23:06.751Z,6.13
2023-04-26T05:25:37.563Z,7.05
2023-04-26T05:28:04.486Z,6.95
2023-04-26T05:30:31.365Z,6.53
2023-04-26T05:32:58.190Z,7.00
2023-04-26T05:35:25.054Z,6.70
2023-04-26T05:37:51.915Z,6.28
2023-04-26T05:40:18.940Z,7.72
2023-04-26T05:42:45.870Z,7.20
2023-04-26T05:45:12.898Z,6.35
2023-04-26T05:47:39.817Z,6.10
2023-04-26T05:50:07.464Z,7.32
2023-04-26T05:52:34.486Z,6.75
2023-04-26T05:55:04.403Z,7.28
2023-04-26T05:57:31.465Z,6.70
2023-04-26T05:59:58.333Z,7.05
2023-04-26T06:02:26.430Z,6.18
2023-04-26T06:04:54.271Z,6.43
2023-04-26T06:07:21.256Z,6.18
2023-04-26T06:09:48.278Z,6.35
2023-04-26T06:12:15.192Z,6.38
2023-04-26T06:14:42.040Z,5.70
2023-04-26T06:17:09.595Z,6.00
2023-04-26T06:19:36.424Z,5.97
2023-04-26T06:22:03.380Z,5.38
2023-04-26T06:24:30.832Z,5.45
2023-04-26T06:26:57.657Z,5.22
2023-04-26T06:29:24.447Z,5.38
2023-04-26T06:31:51.415Z,5.50
2023-04-26T06:34:18.279Z,5.20
2023-04-26T06:36:46.051Z,6.30
2023-04-26T06:39:12.821Z,5.85
2023-04-26T06:41:39.818Z,6.70
2023-04-26T06:44:06.672Z,6.75
2023-04-26T06:46:33.588Z,6.60
2023-04-26T06:49:01.738Z,7.50
2023-04-26T06:51:29.725Z,6.53
2023-04-26T06:53:59.069Z,6.90
2023-04-26T06:56:26.069Z,7.13
2023-04-26T06:59:00.538Z,6.57
2023-04-26T07:01:29.384Z,6.78
2023-04-26T07:03:59.796Z,6.50
2023-04-26T07:06:26.936Z,6.43
2023-04-26T07:08:54.290Z,6.53
2023-04-26T07:11:23.446Z,6.82
2023-04-26T07:13:52.738Z,7.00
2023-04-26T07:16:19.848Z,6.30
2023-04-26T07:18:48.455Z,6.32
2023-04-26T07:21:15.970Z,5.88
2023-04-26T07:23:42.788Z,6.30
2023-04-26T07:26:11.380Z,5.97
2023-04-26T07:28:38.387Z,6.00
2023-04-26T07:31:07.787Z,5.75
2023-04-26T07:33:35.909Z,5.65
2023-04-26T07:36:02.994Z,5.60
2023-04-26T07:38:29.802Z,4.93
2023-04-26T07:40:56.606Z,5.20
2023-04-26T07:43:23.529Z,6.25
2023-04-26T07:45:50.365Z,6.85
2023-04-26T07:48:17.376Z,5.68
2023-04-26T07:50:44.235Z,5.85
2023-04-26T07:53:11.088Z,5.82
2023-04-26T07:55:38.027Z,5.78
2023-04-26T07:58:04.821Z,5.93
2023-04-26T08:00:33.111Z,5.57
2023-04-26T08:03:00.164Z,7.70
2023-04-26T08:05:27.898Z,7.13
2023-04-26T08:07:54.972Z,6.63
2023-04-26T08:10:21.955Z,5.45
2023-04-26T08:12:50.243Z,5.70
2023-04-26T08:15:17.145Z,5.95
2023-04-26T08:17:43.996Z,6.45
2023-04-26T08:20:11.344Z,6.00
2023-04-26T08:22:38.178Z,6.80
2023-04-26T08:25:06.451Z,5.85
2023-04-26T08:27:34.576Z,5.72
2023-04-26T08:30:01.513Z,6.30
2023-04-26T08:32:28.354Z,6.20
2023-04-26T08:34:55.482Z,6.72
2023-04-26T08:37:22.334Z,5.47
2023-04-26T08:39:49.166Z,6.40
2023-04-26T08:42:17.646Z,5.75
2023-04-26T08:44:45.235Z,5.97
2023-04-26T08:47:43.150Z,6.30
2023-04-26T08:50:12.418Z,5.78
2023-04-26T08:52:41.152Z,5.53
2023-04-26T08:55:12.861Z,6.65
2023-04-26T08:57:43.579Z,6.22
2023-04-26T09:00:13.557Z,6.35
2023-04-26T09:02:42.918Z,6.13
2023-04-26T09:05:11.063Z,6.05
2023-04-26T09:07:48.084Z,7.72
2023-04-26T09:10:21.029Z,5.85
2023-04-26T09:12:55.189Z,5.32
2023-04-26T09:15:23.389Z,4.97
2023-04-26T09:17:51.769Z,5.57
2023-04-26T09:20:30.629Z,5.55
2023-04-26T09:23:09.768Z,4.90
2023-04-26T09:25:37.334Z,4.65
2023-04-26T09:28:18.536Z,4.95
2023-04-26T09:30:45.395Z,5.05
2023-04-26T09:33:12.405Z,5.13
2023-04-26T09:35:43.660Z,5.93
2023-04-26T09:38:15.196Z,7.22
2023-04-26T09:40:50.616Z,5.72
2023-04-26T09:43:19.821Z,5.20
2023-04-26T09:45:53.801Z,6.25
2023-04-26T09:48:23.502Z,5.65
2023-04-26T09:50:52.546Z,5.90
2023-04-26T09:53:29.213Z,5.45
2023-04-26T09:55:56.777Z,5.45
2023-04-26T09:58:23.829Z,5.55
2023-04-26T10:00:52.364Z,5.63
2023-04-26T10:03:21.013Z,5.88
2023-04-26T10:05:48.545Z,6.28
2023-04-26T10:08:15.648Z,6.07
2023-04-26T10:10:43.723Z,6.40
2023-04-26T10:13:12.492Z,7.03
2023-04-26T10:15:40.982Z,6.20
2023-04-26T10:18:08.807Z,6.53
2023-04-26T10:20:41.551Z,6.53
2023-04-26T10:23:20.068Z,6.05
2023-04-26T10:25:47.772Z,6.30
2023-04-26T10:28:14.747Z,6.63
2023-04-26T10:30:58.477Z,7.13
2023-04-26T10:33:26.446Z,7.18
2023-04-26T10:36:06.096Z,8.20
2023-04-26T10:38:33.761Z,7.28
2023-04-26T10:41:33.210Z,7.95
2023-04-26T10:44:21.741Z,7.20
2023-04-26T10:46:52.790Z,7.13
2023-04-26T10:49:25.687Z,7.80
2023-04-26T10:52:12.491Z,7.20
2023-04-26T10:54:52.683Z,7.95
2023-04-26T10:57:20.152Z,7.07
2023-04-26T11:00:14.714Z,6.30
2023-04-26T11:02:54.197Z,7.18
2023-04-26T11:05:53.297Z,6.63
2023-04-26T11:08:32.317Z,5.88
2023-04-26T11:11:10.376Z,6.45
2023-04-26T11:13:39.354Z,6.30
2023-04-26T11:16:08.701Z,6.43
2023-04-26T11:18:37.423Z,6.53
2023-04-26T11:21:05.284Z,6.75
2023-04-26T11:23:32.771Z,6.40
2023-04-26T11:26:02.959Z,7.45
2023-04-26T11:28:33.927Z,7.20
2023-04-26T11:31:04.355Z,6.65
2023-04-26T11:33:31.530Z,7.20
2023-04-26T11:35:58.589Z,8.00
2023-04-26T11:38:26.886Z,7.40
2023-04-26T11:40:59.139Z,6.38
2023-04-26T11:43:39.803Z,5.72
2023-04-26T11:46:09.776Z,6.03
2023-04-26T11:48:38.164Z,6.70
2023-04-26T11:51:07.356Z,6.75
2023-04-26T11:53:43.773Z,7.15
2023-04-26T11:56:18.155Z,5.95
2023-04-26T11:58:49.277Z,6.25
2023-04-26T12:01:27.466Z,5.82
2023-04-26T12:03:58.704Z,7.85
2023-04-26T12:06:55.258Z,6.20
2023-04-26T12:09:29.706Z,5.78
2023-04-26T12:12:06.531Z,5.35
2023-04-26T12:14:40.350Z,5.18
2023-04-26T12:17:08.104Z,5.43
2023-04-26T12:19:39.034Z,5.60
2023-04-26T12:22:07.280Z,5.00
2023-04-26T12:24:36.772Z,5.03
2023-04-26T12:27:06.665Z,5.28
2023-04-26T12:29:34.042Z,5.35
2023-04-26T12:32:02.110Z,5.13
2023-04-26T12:34:29.085Z,7.47
2023-04-26T12:36:56.304Z,7.63
2023-04-26T12:39:23.224Z,6.55
2023-04-26T12:41:50.104Z,5.50
2023-04-26T12:44:17.622Z,5.10
2023-04-26T12:46:46.424Z,6.65
2023-04-26T12:49:13.317Z,5.93
2023-04-26T12:51:40.162Z,6.28
2023-04-26T12:54:07.041Z,5.72
2023-04-26T12:56:35.136Z,7.25
2023-04-26T12:59:02.135Z,7.60
2023-04-26T13:01:29.016Z,7.72
2023-04-26T13:03:56.840Z,8.10
2023-04-26T13:06:24.144Z,8.27
2023-04-26T13:08:51.196Z,7.93
2023-04-26T13:11:18.147Z,8.90
2023-04-26T13:13:45.247Z,8.43
2023-04-26T13:16:13.192Z,9.48
2023-04-26T13:18:41.430Z,8.98
2023-04-26T13:21:08.204Z,8.23
2023-04-26T13:23:35.008Z,8.30
2023-04-26T13:26:01.904Z,7.90
2023-04-26T13:28:28.708Z,7.05
2023-04-26T13:30:56.031Z,7.93
2023-04-26T13:33:23.167Z,7.13
2023-04-26T13:35:50.023Z,9.07
2023-04-26T13:38:17.246Z,8.32
2023-04-26T13:40:44.792Z,7.57
2023-04-26T13:43:11.750Z,6.72
2023-04-26T13:45:38.855Z,7.25
2023-04-26T13:48:05.977Z,7.18
2023-04-26T13:50:32.892Z,7.68
2023-04-26T13:53:00.168Z,7.85
2023-04-26T13:55:27.122Z,8.98
2023-04-26T13:57:53.966Z,8.10
2023-04-26T14:00:21.354Z,8.18
2023-04-26T14:02:49.514Z,8.10
2023-04-26T14:05:16.639Z,10.65
2023-04-26T14:07:43.699Z,12.18
2023-04-26T14:10:10.954Z,12.25
2023-04-26T14:12:37.967Z,12.63
2023-04-26T14:15:06.191Z,12.63
2023-04-26T14:17:33.481Z,10.77
2023-04-26T14:20:00.591Z,10.63
2023-04-26T14:22:27.634Z,9.57
2023-04-26T14:24:54.528Z,8.98
2023-04-26T14:27:21.408Z,11.25
2023-04-26T14:29:48.262Z,10.68
2023-04-26T14:32:15.285Z,8.57
2023-04-26T14:34:42.943Z,8.65
2023-04-26T14:37:10.640Z,9.02
2023-04-26T14:39:37.718Z,8.40
2023-04-26T14:42:04.846Z,7.80
2023-04-26T14:44:31.817Z,9.57
2023-04-26T14:46:58.671Z,8.95
2023-04-26T14:49:25.772Z,8.75
2023-04-26T14:51:53.398Z,8.90
2023-04-26T14:54:21.258Z,9.43
2023-04-26T14:56:48.918Z,9.07
2023-04-26T14:59:16.180Z,8.10
2023-04-26T15:01:43.136Z,9.35
2023-04-26T15:04:10.190Z,8.63
2023-04-26T15:06:37.260Z,8.75
2023-04-26T15:09:04.588Z,9.25
2023-04-26T15:11:31.917Z,9.32
2023-04-26T15:13:58.729Z,9.43
2023-04-26T15:16:25.551Z,10.65
2023-04-26T15:18:52.504Z,9.70
2023-04-26T15:21:19.972Z,10.55
2023-04-26T15:23:46.820Z,10.23
2023-04-26T15:26:14.121Z,9.75
2023-04-26T15:28:41.232Z,10.15
2023-04-26T15:31:09.914Z,10.63
2023-04-26T15:33:36.871Z,9.93
2023-04-26T15:36:03.919Z,9.15
2023-04-26T15:38:30.775Z,9.02
2023-04-26T15:40:57.562Z,8.95
2023-04-26T15:43:24.396Z,9.52
2023-04-26T15:45:51.449Z,9.82
2023-04-26T15:48:18.278Z,9.23
2023-04-26T15:50:46.278Z,9.00
2023-04-26T15:53:13.157Z,14.88
2023-04-26T15:55:39.999Z,15.13
2023-04-26T15:58:06.921Z,13.85
2023-04-26T16:00:34.032Z,11.82
2023-04-26T16:03:02.244Z,11.25
2023-04-26T16:05:29.265Z,9.85
2023-04-26T16:07:56.367Z,9.65
2023-04-26T16:10:23.881Z,10.25
2023-04-26T16:12:50.975Z,9.13
2023-04-26T16:15:18.040Z,9.40
2023-04-26T16:17:44.888Z,9.75
2023-04-26T16:20:11.944Z,10.13
2023-04-26T16:22:38.853Z,10.80
2023-04-26T16:25:06.964Z,10.85
2023-04-26T16:27:34.015Z,10.23
2023-04-26T16:30:01.021Z,9.73
2023-04-26T16:32:28.050Z,9.52
2023-04-26T16:34:54.941Z,9.18
2023-04-26T16:37:21.733Z,9.90
2023-04-26T16:39:48.631Z,10.80
2023-04-26T16:42:15.399Z,10.82
2023-04-26T16:44:42.171Z,11.48
2023-04-26T16:47:08.959Z,10.70
2023-04-26T16:49:35.957Z,10.98
2023-04-26T16:52:03.856Z,11.38
2023-04-26T16:54:30.816Z,12.32
2023-04-26T16:56:58.291Z,11.55
2023-04-26T16:59:25.207Z,11.75
2023-04-26T17:01:53.243Z,11.18
2023-04-26T17:04:20.408Z,10.65
2023-04-26T17:06:47.457Z,10.77
2023-04-26T17:09:14.825Z,10.75
2023-04-26T17:11:43.686Z,10.85
2023-04-26T17:14:11.251Z,10.68
2023-04-26T17:16:38.204Z,10.65
2023-04-26T17:19:05.114Z,11.20
2023-04-26T17:21:31.992Z,12.23
2023-04-26T17:23:58.771Z,11.00
2023-04-26T17:26:25.602Z,11.77
2023-04-26T17:28:53.810Z,13.50
2023-04-26T17:31:20.705Z,13.48
2023-04-26T17:33:47.585Z,12.85
2023-04-26T17:36:14.505Z,13.73
2023-04-26T17:38:41.468Z,12.80
2023-04-26T17:41:08.326Z,13.75
2023-04-26T17:43:35.179Z,13.40
2023-04-26T17:46:01.974Z,12.70
2023-04-26T17:48:29.210Z,13.40
2023-04-26T17:50:56.565Z,12.88
2023-04-26T17:53:23.473Z,12.77
2023-04-26T17:55:51.842Z,11.70
2023-04-26T17:58:18.799Z,12.43
2023-04-26T18:00:45.730Z,13.15
2023-04-26T18:03:12.702Z,12.77
2023-04-26T18:05:39.975Z,13.38
2023-04-26T18:08:06.864Z,14.07
2023-04-26T18:10:33.860Z,13.50
2023-04-26T18:13:00.610Z,13.80
2023-04-26T18:15:27.517Z,13.25
2023-04-26T18:17:54.523Z,12.68
2023-04-26T18:20:21.638Z,13.43
2023-04-26T18:22:48.433Z,13.57
2023-04-26T18:25:15.519Z,14.32
2023-04-26T18:27:42.478Z,14.07
2023-04-26T18:30:10.275Z,13.55
2023-04-26T18:32:37.051Z,14.50
2023-04-26T18:35:06.255Z,13.50
2023-04-26T18:37:33.185Z,13.60
2023-04-26T18:40:00.006Z,13.68
2023-04-26T18:42:26.893Z,14.45
2023-04-26T18:44:53.688Z,14.80
2023-04-26T18:47:20.555Z,14.43
2023-04-26T18:49:47.461Z,14.23
2023-04-26T18:52:14.240Z,14.57
2023-04-26T18:54:41.288Z,14.00
2023-04-26T18:57:08.162Z,13.95
2023-04-26T18:59:34.981Z,14.00
2023-04-26T19:02:02.020Z,13.95
2023-04-26T19:04:29.158Z,15.70
2023-04-26T19:06:56.775Z,15.20
2023-04-26T19:09:23.629Z,14.18
2023-04-26T19:11:50.408Z,14.55
2023-04-26T19:14:17.327Z,15.05
2023-04-26T19:16:44.169Z,16.00
2023-04-26T19:19:11.211Z,15.23
2023-04-26T19:21:38.113Z,15.90
2023-04-26T19:24:05.258Z,15.63
2023-04-26T19:26:32.162Z,16.55
2023-04-26T19:28:58.985Z,14.90
2023-04-26T19:31:25.800Z,15.73
2023-04-26T19:33:52.611Z,16.58
2023-04-26T19:36:20.194Z,15.38
2023-04-26T19:38:48.511Z,15.32
2023-04-26T19:41:15.409Z,16.17
2023-04-26T19:43:42.348Z,15.45
2023-04-26T19:46:13.687Z,16.42
2023-04-26T19:48:41.302Z,16.15
2023-04-26T19:51:08.150Z,16.95
2023-04-26T19:53:35.317Z,16.35
2023-04-26T19:56:02.192Z,16.73
2023-04-26T19:58:29.004Z,15.95
2023-04-26T20:00:55.886Z,16.52
2023-04-26T20:03:22.989Z,15.82
2023-04-26T20:05:50.080Z,16.80
2023-04-26T20:08:16.848Z,16.95
2023-04-26T20:10:43.700Z,17.50
2023-04-26T20:13:10.742Z,17.20
2023-04-26T20:15:37.635Z,16.75
2023-04-26T20:18:04.566Z,17.23
2023-04-26T20:20:31.487Z,16.80
2023-04-26T20:22:58.393Z,17.63
2023-04-26T20:25:25.627Z,16.70
2023-04-26T20:27:52.580Z,20.88
2023-04-26T20:30:19.474Z,17.08
2023-04-26T20:32:46.934Z,16.58
2023-04-26T20:35:13.950Z,16.35
2023-04-26T20:37:40.830Z,16.55
2023-04-26T20:40:08.342Z,15.52
2023-04-26T20:42:35.423Z,16.98
2023-04-26T20:45:02.907Z,18.00
2023-04-26T20:47:30.231Z,15.98
2023-04-26T20:49:57.067Z,17.13
2023-04-26T20:52:24.062Z,15.05
2023-04-26T20:54:50.862Z,14.45
2023-04-26T20:57:17.662Z,15.13
2023-04-26T20:59:44.465Z,14.52
2023-04-26T21:02:11.629Z,14.23
2023-04-26T21:04:41.680Z,14.52
2023-04-26T21:07:09.667Z,14.88
2023-04-26T21:09:37.706Z,11.75
2023-04-26T21:12:04.780Z,8.00
2023-04-26T21:14:31.784Z,4.82
2023-04-26T21:16:58.701Z,4.55
2023-04-26T21:19:25.692Z,4.32
2023-04-26T21:21:52.622Z,3.90
2023-04-26T21:24:19.506Z,3.00
2023-04-26T21:26:46.401Z,2.38
2023-04-26T21:29:13.279Z,2.15
2023-04-26T21:31:40.290Z,1.90
2023-04-26T21:34:07.177Z,1.63
2023-04-26T21:36:34.092Z,1.20
2023-04-26T21:39:01.398Z,1.30
2023-04-26T21:41:28.501Z,1.00
2023-04-26T21:43:56.085Z,0.90
2023-04-26T21:46:23.063Z,1.17
2023-04-26T21:48:49.998Z,0.90
2023-04-26T21:51:17.253Z,0.70
2023-04-26T21:53:44.216Z,0.60
2023-04-26T21:56:11.221Z,0.90
2023-04-26T21:58:38.137Z,0.90
2023-04-26T22:01:10.134Z,0.90
2023-04-26T22:03:37.924Z,0.80
2023-04-26T22:06:06.033Z,0.85
2023-04-26T22:08:33.270Z,0.95
2023-04-26T22:11:01.695Z,1.00
2023-04-26T22:13:29.205Z,1.05
2023-04-26T22:15:56.237Z,1.45
2023-04-26T22:18:23.152Z,1.20
2023-04-26T22:20:50.017Z,1.63
2023-04-26T22:23:16.953Z,1.42
2023-04-26T22:25:43.827Z,1.10
2023-04-26T22:28:10.839Z,1.13
2023-04-26T22:30:37.719Z,1.30
2023-04-26T22:33:07.117Z,1.60
2023-04-26T22:35:34.032Z,1.20
2023-04-26T22:38:00.972Z,1.23
2023-04-26T22:40:27.956Z,1.60
2023-04-26T22:42:54.802Z,1.27
2023-04-26T22:45:21.805Z,1.30
2023-04-26T22:47:48.673Z,1.35
2023-04-26T22:50:15.805Z,1.30
2023-04-26T22:52:42.773Z,1.30
2023-04-26T22:55:09.986Z,1.05
2023-04-26T22:57:37.549Z,1.08
2023-04-26T23:00:06.089Z,1.10
2023-04-26T23:02:33.010Z,1.20
2023-04-26T23:05:00.178Z,1.10
2023-04-26T23:07:27.308Z,1.30
2023-04-26T23:09:54.282Z,1.20
2023-04-26T23:12:21.197Z,1.08
2023-04-26T23:14:48.769Z,1.20
2023-04-26T23:17:15.833Z,1.25
2023-04-26T23:19:42.770Z,1.38
2023-04-26T23:22:09.725Z,1.20
2023-04-26T23:24:36.647Z,1.20
2023-04-26T23:27:03.855Z,1.20
2023-04-26T23:29:30.982Z,1.30
2023-04-26T23:31:58.193Z,1.35
2023-04-26T23:34:25.454Z,1.20
2023-04-26T23:36:52.317Z,1.10
2023-04-26T23:39:19.399Z,1.02
2023-04-26T23:41:46.507Z,0.90
2023-04-26T23:44:13.512Z,1.17
2023-04-26T23:46:40.494Z,1.17
2023-04-26T23:49:07.443Z,1.05
2023-04-26T23:51:34.374Z,0.90
2023-04-26T23:54:01.533Z,1.20
2023-04-26T23:56:28.626Z,0.90
2023-04-26T23:58:56.205Z,0.90
